sensor_id;sensor_type;location;lat;lon;timestamp;P1;durP1;ratioP1;P2;durP2;ratioP2
55063;SDS011;40963;52.168;21.296;2023-04-19T00:00:27;6.80;;;4.45;;
55063;SDS011;40963;52.168;21.296;2023-04-19T00:02:53;7.90;;;4.60;;
55063;SDS011;40963;52.168;21.296;2023-04-19T00:05:19;8.07;;;4.38;;
55063;SDS011;40963;52.168;21.296;2023-04-19T00:07:47;7.75;;;4.28;;
55063;SDS011;40963;52.168;21.296;2023-04-19T00:10:13;7.30;;;4.60;;
55063;SDS011;40963;52.168;21.296;2023-04-19T00:12:38;7.38;;;4.60;;
55063;SDS011;40963;52.168;21.296;2023-04-19T00:15:04;7.63;;;4.30;;
55063;SDS011;40963;52.168;21.296;2023-04-19T00:17:30;7.85;;;4.70;;
55063;SDS011;40963;52.168;21.296;2023-04-19T00:19:57;8.90;;;4.82;;
55063;SDS011;40963;52.168;21.296;2023-04-19T00:22:22;7.18;;;4.82;;
55063;SDS011;40963;52.168;21.296;2023-04-19T00:24:48;6.75;;;4.35;;
55063;SDS011;40963;52.168;21.296;2023-04-19T00:27:14;6.68;;;4.45;;
55063;SDS011;40963;52.168;21.296;2023-04-19T00:29:39;4.78;;;3.63;;
55063;SDS011;40963;52.168;21.296;2023-04-19T00:32:05;7.30;;;4.07;;
55063;SDS011;40963;52.168;21.296;2023-04-19T00:34:30;4.97;;;3.67;;
55063;SDS011;40963;52.168;21.296;2023-04-19T00:36:56;5.20;;;3.65;;
55063;SDS011;40963;52.168;21.296;2023-04-19T00:39:22;4.07;;;3.47;;
55063;SDS011;40963;52.168;21.296;2023-04-19T00:41:48;5.05;;;4.22;;
55063;SDS011;40963;52.168;21.296;2023-04-19T00:44:13;7.35;;;4.40;;
55063;SDS011;40963;52.168;21.296;2023-04-19T00:46:39;7.75;;;4.50;;
55063;SDS011;40963;52.168;21.296;2023-04-19T00:49:05;5.00;;;3.72;;
55063;SDS011;40963;52.168;21.296;2023-04-19T00:51:31;4.93;;;3.97;;
55063;SDS011;40963;52.168;21.296;2023-04-19T00:53:57;8.90;;;4.15;;
55063;SDS011;40963;52.168;21.296;2023-04-19T00:56:23;5.90;;;4.00;;
55063;SDS011;40963;52.168;21.296;2023-04-19T00:58:52;2.60;;;2.20;;
55063;SDS011;40963;52.168;21.296;2023-04-19T01:01:18;5.80;;;4.60;;
55063;SDS011;40963;52.168;21.296;2023-04-19T01:03:44;5.55;;;4.40;;
55063;SDS011;40963;52.168;21.296;2023-04-19T01:06:11;6.75;;;4.45;;
55063;SDS011;40963;52.168;21.296;2023-04-19T01:08:37;6.55;;;4.30;;
55063;SDS011;40963;52.168;21.296;2023-04-19T01:11:03;8.20;;;4.30;;
55063;SDS011;40963;52.168;21.296;2023-04-19T01:13:29;5.65;;;4.32;;
55063;SDS011;40963;52.168;21.296;2023-04-19T01:15:55;8.23;;;4.95;;
55063;SDS011;40963;52.168;21.296;2023-04-19T01:18:22;5.25;;;3.88;;
55063;SDS011;40963;52.168;21.296;2023-04-19T01:20:49;5.22;;;4.07;;
55063;SDS011;40963;52.168;21.296;2023-04-19T01:23:15;7.85;;;4.22;;
55063;SDS011;40963;52.168;21.296;2023-04-19T01:25:40;8.02;;;4.85;;
55063;SDS011;40963;52.168;21.296;2023-04-19T01:28:06;7.90;;;4.30;;
55063;SDS011;40963;52.168;21.296;2023-04-19T01:30:32;6.97;;;4.65;;
55063;SDS011;40963;52.168;21.296;2023-04-19T01:32:58;6.35;;;4.18;;
55063;SDS011;40963;52.168;21.296;2023-04-19T01:35:23;6.65;;;4.90;;
55063;SDS011;40963;52.168;21.296;2023-04-19T01:37:49;6.90;;;4.68;;
55063;SDS011;40963;52.168;21.296;2023-04-19T01:40:17;8.30;;;5.30;;
55063;SDS011;40963;52.168;21.296;2023-04-19T01:42:43;8.60;;;4.80;;
55063;SDS011;40963;52.168;21.296;2023-04-19T01:45:08;7.82;;;5.72;;
55063;SDS011;40963;52.168;21.296;2023-04-19T01:47:34;7.65;;;5.55;;
55063;SDS011;40963;52.168;21.296;2023-04-19T01:49:59;9.05;;;5.25;;
55063;SDS011;40963;52.168;21.296;2023-04-19T01:52:25;6.95;;;5.07;;
55063;SDS011;40963;52.168;21.296;2023-04-19T01:54:50;12.82;;;5.28;;
55063;SDS011;40963;52.168;21.296;2023-04-19T01:57:16;9.00;;;6.35;;
55063;SDS011;40963;52.168;21.296;2023-04-19T01:59:42;8.77;;;6.15;;
55063;SDS011;40963;52.168;21.296;2023-04-19T02:02:08;8.43;;;5.55;;
55063;SDS011;40963;52.168;21.296;2023-04-19T02:04:34;9.43;;;6.82;;
55063;SDS011;40963;52.168;21.296;2023-04-19T02:06:59;10.35;;;6.72;;
55063;SDS011;40963;52.168;21.296;2023-04-19T02:09:25;9.90;;;6.50;;
55063;SDS011;40963;52.168;21.296;2023-04-19T02:11:50;8.05;;;5.80;;
55063;SDS011;40963;52.168;21.296;2023-04-19T02:14:16;8.25;;;5.97;;
55063;SDS011;40963;52.168;21.296;2023-04-19T02:16:42;13.70;;;7.70;;
55063;SDS011;40963;52.168;21.296;2023-04-19T02:19:07;9.43;;;6.40;;
55063;SDS011;40963;52.168;21.296;2023-04-19T02:21:33;11.65;;;7.88;;
55063;SDS011;40963;52.168;21.296;2023-04-19T02:23:58;10.70;;;6.95;;
55063;SDS011;40963;52.168;21.296;2023-04-19T02:26:25;11.05;;;7.10;;
55063;SDS011;40963;52.168;21.296;2023-04-19T02:28:51;13.38;;;7.20;;
55063;SDS011;40963;52.168;21.296;2023-04-19T02:31:17;9.60;;;7.00;;
55063;SDS011;40963;52.168;21.296;2023-04-19T02:33:42;11.10;;;7.00;;
55063;SDS011;40963;52.168;21.296;2023-04-19T02:36:08;10.63;;;7.30;;
55063;SDS011;40963;52.168;21.296;2023-04-19T02:38:34;10.20;;;7.57;;
55063;SDS011;40963;52.168;21.296;2023-04-19T02:41:00;9.98;;;6.72;;
55063;SDS011;40963;52.168;21.296;2023-04-19T02:43:28;9.25;;;6.22;;
55063;SDS011;40963;52.168;21.296;2023-04-19T02:45:54;8.48;;;5.80;;
55063;SDS011;40963;52.168;21.296;2023-04-19T02:48:20;12.02;;;7.38;;
55063;SDS011;40963;52.168;21.296;2023-04-19T02:50:45;11.98;;;6.97;;
55063;SDS011;40963;52.168;21.296;2023-04-19T02:53:11;9.82;;;6.97;;
55063;SDS011;40963;52.168;21.296;2023-04-19T02:55:36;9.70;;;6.93;;
55063;SDS011;40963;52.168;21.296;2023-04-19T02:58:02;13.68;;;8.38;;
55063;SDS011;40963;52.168;21.296;2023-04-19T03:00:28;11.18;;;6.82;;
55063;SDS011;40963;52.168;21.296;2023-04-19T03:02:54;11.95;;;7.63;;
55063;SDS011;40963;52.168;21.296;2023-04-19T03:05:20;12.45;;;7.72;;
55063;SDS011;40963;52.168;21.296;2023-04-19T03:07:47;11.25;;;7.75;;
55063;SDS011;40963;52.168;21.296;2023-04-19T03:10:12;11.50;;;7.35;;
55063;SDS011;40963;52.168;21.296;2023-04-19T03:12:38;9.88;;;7.22;;
55063;SDS011;40963;52.168;21.296;2023-04-19T03:15:03;12.27;;;7.50;;
55063;SDS011;40963;52.168;21.296;2023-04-19T03:17:30;14.32;;;8.90;;
55063;SDS011;40963;52.168;21.296;2023-04-19T03:19:55;14.15;;;8.27;;
55063;SDS011;40963;52.168;21.296;2023-04-19T03:22:21;13.30;;;8.93;;
55063;SDS011;40963;52.168;21.296;2023-04-19T03:24:47;16.98;;;9.60;;
55063;SDS011;40963;52.168;21.296;2023-04-19T03:27:12;14.38;;;8.70;;
55063;SDS011;40963;52.168;21.296;2023-04-19T03:29:38;16.10;;;8.68;;
55063;SDS011;40963;52.168;21.296;2023-04-19T03:32:03;14.07;;;9.02;;
55063;SDS011;40963;52.168;21.296;2023-04-19T03:34:29;15.55;;;9.00;;
55063;SDS011;40963;52.168;21.296;2023-04-19T03:36:55;12.05;;;7.93;;
55063;SDS011;40963;52.168;21.296;2023-04-19T03:39:20;13.40;;;7.97;;
55063;SDS011;40963;52.168;21.296;2023-04-19T03:41:46;17.98;;;8.73;;
55063;SDS011;40963;52.168;21.296;2023-04-19T03:44:11;12.45;;;8.45;;
55063;SDS011;40963;52.168;21.296;2023-04-19T03:46:37;12.27;;;8.20;;
55063;SDS011;40963;52.168;21.296;2023-04-19T03:49:02;10.10;;;7.45;;
55063;SDS011;40963;52.168;21.296;2023-04-19T03:51:28;12.02;;;8.05;;
55063;SDS011;40963;52.168;21.296;2023-04-19T03:53:54;17.80;;;8.13;;
55063;SDS011;40963;52.168;21.296;2023-04-19T03:56:19;12.57;;;7.68;;
55063;SDS011;40963;52.168;21.296;2023-04-19T03:58:45;11.75;;;8.45;;
55063;SDS011;40963;52.168;21.296;2023-04-19T04:01:17;11.02;;;7.43;;
55063;SDS011;40963;52.168;21.296;2023-04-19T04:03:44;11.65;;;7.53;;
55063;SDS011;40963;52.168;21.296;2023-04-19T04:06:09;12.15;;;7.45;;
55063;SDS011;40963;52.168;21.296;2023-04-19T04:08:35;9.23;;;7.32;;
55063;SDS011;40963;52.168;21.296;2023-04-19T04:11:00;10.05;;;7.25;;
55063;SDS011;40963;52.168;21.296;2023-04-19T04:13:26;14.85;;;7.63;;
55063;SDS011;40963;52.168;21.296;2023-04-19T04:15:51;13.50;;;8.27;;
55063;SDS011;40963;52.168;21.296;2023-04-19T04:18:17;10.25;;;7.30;;
55063;SDS011;40963;52.168;21.296;2023-04-19T04:20:43;14.50;;;8.02;;
55063;SDS011;40963;52.168;21.296;2023-04-19T04:23:08;12.07;;;7.93;;
55063;SDS011;40963;52.168;21.296;2023-04-19T04:25:34;13.63;;;8.20;;
55063;SDS011;40963;52.168;21.296;2023-04-19T04:28:02;10.95;;;8.05;;
55063;SDS011;40963;52.168;21.296;2023-04-19T04:30:28;13.07;;;8.50;;
55063;SDS011;40963;52.168;21.296;2023-04-19T04:32:54;10.75;;;8.15;;
55063;SDS011;40963;52.168;21.296;2023-04-19T04:35:21;17.27;;;8.35;;
55063;SDS011;40963;52.168;21.296;2023-04-19T04:37:47;12.35;;;8.27;;
55063;SDS011;40963;52.168;21.296;2023-04-19T04:40:13;12.63;;;9.13;;
55063;SDS011;40963;52.168;21.296;2023-04-19T04:42:39;14.05;;;9.38;;
55063;SDS011;40963;52.168;21.296;2023-04-19T04:45:06;17.98;;;10.25;;
55063;SDS011;40963;52.168;21.296;2023-04-19T04:47:34;12.98;;;9.52;;
55063;SDS011;40963;52.168;21.296;2023-04-19T04:50:01;12.15;;;8.80;;
55063;SDS011;40963;52.168;21.296;2023-04-19T04:52:27;16.30;;;11.10;;
55063;SDS011;40963;52.168;21.296;2023-04-19T04:54:53;17.33;;;9.60;;
55063;SDS011;40963;52.168;21.296;2023-04-19T04:57:19;17.77;;;10.35;;
55063;SDS011;40963;52.168;21.296;2023-04-19T04:59:45;15.75;;;10.60;;
55063;SDS011;40963;52.168;21.296;2023-04-19T05:02:12;17.85;;;9.48;;
55063;SDS011;40963;52.168;21.296;2023-04-19T05:04:41;13.70;;;9.50;;
55063;SDS011;40963;52.168;21.296;2023-04-19T05:07:06;16.30;;;9.48;;
55063;SDS011;40963;52.168;21.296;2023-04-19T05:09:32;17.48;;;10.50;;
55063;SDS011;40963;52.168;21.296;2023-04-19T05:11:58;17.73;;;10.45;;
55063;SDS011;40963;52.168;21.296;2023-04-19T05:14:23;16.25;;;11.00;;
55063;SDS011;40963;52.168;21.296;2023-04-19T05:16:49;13.93;;;9.15;;
55063;SDS011;40963;52.168;21.296;2023-04-19T05:19:14;15.32;;;9.60;;
55063;SDS011;40963;52.168;21.296;2023-04-19T05:21:40;16.30;;;10.98;;
55063;SDS011;40963;52.168;21.296;2023-04-19T05:24:06;14.35;;;10.77;;
55063;SDS011;40963;52.168;21.296;2023-04-19T05:26:33;14.93;;;8.30;;
55063;SDS011;40963;52.168;21.296;2023-04-19T05:28:59;18.17;;;10.02;;
55063;SDS011;40963;52.168;21.296;2023-04-19T05:31:25;18.73;;;10.15;;
55063;SDS011;40963;52.168;21.296;2023-04-19T05:33:50;12.18;;;9.07;;
55063;SDS011;40963;52.168;21.296;2023-04-19T05:36:16;14.35;;;9.68;;
55063;SDS011;40963;52.168;21.296;2023-04-19T05:38:41;14.75;;;10.10;;
55063;SDS011;40963;52.168;21.296;2023-04-19T05:41:07;17.02;;;9.70;;
55063;SDS011;40963;52.168;21.296;2023-04-19T05:43:33;14.40;;;9.98;;
55063;SDS011;40963;52.168;21.296;2023-04-19T05:45:58;14.68;;;9.18;;
55063;SDS011;40963;52.168;21.296;2023-04-19T05:48:24;23.30;;;9.85;;
55063;SDS011;40963;52.168;21.296;2023-04-19T05:50:49;14.20;;;9.45;;
55063;SDS011;40963;52.168;21.296;2023-04-19T05:53:18;13.43;;;8.48;;
55063;SDS011;40963;52.168;21.296;2023-04-19T05:55:43;20.23;;;8.73;;
55063;SDS011;40963;52.168;21.296;2023-04-19T05:58:09;15.50;;;8.73;;
55063;SDS011;40963;52.168;21.296;2023-04-19T06:00:35;14.63;;;8.57;;
55063;SDS011;40963;52.168;21.296;2023-04-19T06:03:01;16.42;;;9.38;;
55063;SDS011;40963;52.168;21.296;2023-04-19T06:05:26;11.63;;;8.27;;
55063;SDS011;40963;52.168;21.296;2023-04-19T06:07:52;12.93;;;9.02;;
55063;SDS011;40963;52.168;21.296;2023-04-19T06:10:20;14.85;;;9.27;;
55063;SDS011;40963;52.168;21.296;2023-04-19T06:12:46;15.90;;;9.02;;
55063;SDS011;40963;52.168;21.296;2023-04-19T06:15:12;15.32;;;9.52;;
55063;SDS011;40963;52.168;21.296;2023-04-19T06:17:37;15.35;;;9.45;;
55063;SDS011;40963;52.168;21.296;2023-04-19T06:20:03;16.27;;;8.82;;
55063;SDS011;40963;52.168;21.296;2023-04-19T06:22:31;15.90;;;9.02;;
55063;SDS011;40963;52.168;21.296;2023-04-19T06:24:57;16.80;;;9.52;;
55063;SDS011;40963;52.168;21.296;2023-04-19T06:27:22;12.60;;;8.85;;
55063;SDS011;40963;52.168;21.296;2023-04-19T06:29:48;14.10;;;8.50;;
55063;SDS011;40963;52.168;21.296;2023-04-19T06:32:14;15.63;;;9.20;;
55063;SDS011;40963;52.168;21.296;2023-04-19T06:34:39;17.35;;;8.35;;
55063;SDS011;40963;52.168;21.296;2023-04-19T06:37:05;14.45;;;9.05;;
55063;SDS011;40963;52.168;21.296;2023-04-19T06:39:32;12.32;;;7.82;;
55063;SDS011;40963;52.168;21.296;2023-04-19T06:41:57;13.85;;;9.00;;
55063;SDS011;40963;52.168;21.296;2023-04-19T06:44:23;11.55;;;8.57;;
55063;SDS011;40963;52.168;21.296;2023-04-19T06:46:48;19.38;;;9.40;;
55063;SDS011;40963;52.168;21.296;2023-04-19T06:49:14;15.20;;;7.85;;
55063;SDS011;40963;52.168;21.296;2023-04-19T06:51:40;15.43;;;8.90;;
55063;SDS011;40963;52.168;21.296;2023-04-19T06:54:05;14.63;;;7.65;;
55063;SDS011;40963;52.168;21.296;2023-04-19T06:56:41;13.82;;;9.38;;
55063;SDS011;40963;52.168;21.296;2023-04-19T06:59:15;12.30;;;7.78;;
55063;SDS011;40963;52.168;21.296;2023-04-19T07:01:42;11.48;;;7.55;;
55063;SDS011;40963;52.168;21.296;2023-04-19T07:04:08;11.68;;;7.60;;
55063;SDS011;40963;52.168;21.296;2023-04-19T07:06:34;14.63;;;9.27;;
55063;SDS011;40963;52.168;21.296;2023-04-19T07:09:00;13.68;;;7.68;;
55063;SDS011;40963;52.168;21.296;2023-04-19T07:11:27;15.15;;;8.00;;
55063;SDS011;40963;52.168;21.296;2023-04-19T07:13:53;17.25;;;7.95;;
55063;SDS011;40963;52.168;21.296;2023-04-19T07:16:19;15.07;;;8.40;;
55063;SDS011;40963;52.168;21.296;2023-04-19T07:18:44;11.73;;;8.48;;
55063;SDS011;40963;52.168;21.296;2023-04-19T07:21:10;14.18;;;8.35;;
55063;SDS011;40963;52.168;21.296;2023-04-19T07:23:36;15.02;;;8.75;;
55063;SDS011;40963;52.168;21.296;2023-04-19T07:26:01;12.15;;;8.40;;
55063;SDS011;40963;52.168;21.296;2023-04-19T07:28:27;13.45;;;8.13;;
55063;SDS011;40963;52.168;21.296;2023-04-19T07:30:53;11.85;;;7.78;;
55063;SDS011;40963;52.168;21.296;2023-04-19T07:33:19;13.88;;;8.55;;
55063;SDS011;40963;52.168;21.296;2023-04-19T07:35:46;12.80;;;8.07;;
55063;SDS011;40963;52.168;21.296;2023-04-19T07:38:12;11.65;;;7.47;;
55063;SDS011;40963;52.168;21.296;2023-04-19T07:40:37;12.68;;;8.63;;
55063;SDS011;40963;52.168;21.296;2023-04-19T07:43:03;10.57;;;6.95;;
55063;SDS011;40963;52.168;21.296;2023-04-19T07:45:29;10.15;;;7.05;;
55063;SDS011;40963;52.168;21.296;2023-04-19T07:47:55;14.98;;;7.13;;
55063;SDS011;40963;52.168;21.296;2023-04-19T07:50:20;12.20;;;7.03;;
55063;SDS011;40963;52.168;21.296;2023-04-19T07:52:46;9.77;;;6.65;;
55063;SDS011;40963;52.168;21.296;2023-04-19T07:55:12;10.02;;;6.80;;
55063;SDS011;40963;52.168;21.296;2023-04-19T07:57:37;11.98;;;7.82;;
55063;SDS011;40963;52.168;21.296;2023-04-19T08:00:03;10.57;;;6.55;;
55063;SDS011;40963;52.168;21.296;2023-04-19T08:02:29;10.25;;;7.30;;
55063;SDS011;40963;52.168;21.296;2023-04-19T08:04:54;13.25;;;7.45;;
55063;SDS011;40963;52.168;21.296;2023-04-19T08:07:21;11.25;;;7.30;;
55063;SDS011;40963;52.168;21.296;2023-04-19T08:09:47;12.90;;;7.20;;
55063;SDS011;40963;52.168;21.296;2023-04-19T08:12:13;11.90;;;6.40;;
55063;SDS011;40963;52.168;21.296;2023-04-19T08:14:39;11.98;;;7.13;;
55063;SDS011;40963;52.168;21.296;2023-04-19T08:17:06;10.20;;;7.18;;
55063;SDS011;40963;52.168;21.296;2023-04-19T08:19:32;9.68;;;6.97;;
55063;SDS011;40963;52.168;21.296;2023-04-19T08:21:57;12.27;;;7.57;;
55063;SDS011;40963;52.168;21.296;2023-04-19T08:24:23;11.60;;;6.78;;
55063;SDS011;40963;52.168;21.296;2023-04-19T08:26:49;8.85;;;6.68;;
55063;SDS011;40963;52.168;21.296;2023-04-19T08:29:20;10.43;;;6.55;;
55063;SDS011;40963;52.168;21.296;2023-04-19T08:31:47;11.95;;;7.63;;
55063;SDS011;40963;52.168;21.296;2023-04-19T08:34:12;10.45;;;6.65;;
55063;SDS011;40963;52.168;21.296;2023-04-19T08:36:38;9.70;;;7.43;;
55063;SDS011;40963;52.168;21.296;2023-04-19T08:39:03;12.75;;;7.20;;
55063;SDS011;40963;52.168;21.296;2023-04-19T08:41:29;9.77;;;6.65;;
55063;SDS011;40963;52.168;21.296;2023-04-19T08:43:55;11.65;;;6.88;;
55063;SDS011;40963;52.168;21.296;2023-04-19T08:46:23;10.63;;;7.35;;
55063;SDS011;40963;52.168;21.296;2023-04-19T08:48:50;10.80;;;6.90;;
55063;SDS011;40963;52.168;21.296;2023-04-19T08:51:16;18.30;;;9.43;;
55063;SDS011;40963;52.168;21.296;2023-04-19T08:53:43;12.63;;;7.55;;
55063;SDS011;40963;52.168;21.296;2023-04-19T08:56:12;12.43;;;7.72;;
55063;SDS011;40963;52.168;21.296;2023-04-19T08:58:38;14.52;;;8.60;;
55063;SDS011;40963;52.168;21.296;2023-04-19T09:01:03;16.00;;;8.77;;
55063;SDS011;40963;52.168;21.296;2023-04-19T09:03:30;19.30;;;13.52;;
55063;SDS011;40963;52.168;21.296;2023-04-19T09:05:56;11.73;;;8.25;;
55063;SDS011;40963;52.168;21.296;2023-04-19T09:08:23;10.82;;;7.78;;
55063;SDS011;40963;52.168;21.296;2023-04-19T09:10:51;13.65;;;8.25;;
55063;SDS011;40963;52.168;21.296;2023-04-19T09:13:22;12.95;;;7.75;;
55063;SDS011;40963;52.168;21.296;2023-04-19T09:15:48;23.30;;;8.25;;
55063;SDS011;40963;52.168;21.296;2023-04-19T09:18:15;9.35;;;6.97;;
55063;SDS011;40963;52.168;21.296;2023-04-19T09:20:41;13.18;;;8.10;;
55063;SDS011;40963;52.168;21.296;2023-04-19T09:23:09;9.82;;;7.25;;
55063;SDS011;40963;52.168;21.296;2023-04-19T09:25:36;11.48;;;7.55;;
55063;SDS011;40963;52.168;21.296;2023-04-19T09:28:09;12.63;;;7.57;;
55063;SDS011;40963;52.168;21.296;2023-04-19T09:30:36;10.82;;;7.15;;
55063;SDS011;40963;52.168;21.296;2023-04-19T09:33:02;16.38;;;7.55;;
55063;SDS011;40963;52.168;21.296;2023-04-19T09:35:38;10.50;;;7.28;;
55063;SDS011;40963;52.168;21.296;2023-04-19T09:38:08;11.57;;;7.68;;
55063;SDS011;40963;52.168;21.296;2023-04-19T09:40:34;13.07;;;7.32;;
55063;SDS011;40963;52.168;21.296;2023-04-19T09:43:00;11.52;;;8.07;;
55063;SDS011;40963;52.168;21.296;2023-04-19T09:45:27;11.70;;;7.40;;
55063;SDS011;40963;52.168;21.296;2023-04-19T09:48:07;11.63;;;7.55;;
55063;SDS011;40963;52.168;21.296;2023-04-19T09:50:34;19.70;;;7.78;;
55063;SDS011;40963;52.168;21.296;2023-04-19T09:53:01;11.07;;;7.68;;
55063;SDS011;40963;52.168;21.296;2023-04-19T09:55:27;12.65;;;8.13;;
55063;SDS011;40963;52.168;21.296;2023-04-19T09:57:54;13.07;;;7.57;;
55063;SDS011;40963;52.168;21.296;2023-04-19T10:00:20;11.85;;;7.47;;
55063;SDS011;40963;52.168;21.296;2023-04-19T10:02:46;10.68;;;7.63;;
55063;SDS011;40963;52.168;21.296;2023-04-19T10:05:21;14.18;;;8.07;;
55063;SDS011;40963;52.168;21.296;2023-04-19T10:07:48;14.38;;;7.78;;
55063;SDS011;40963;52.168;21.296;2023-04-19T10:10:14;29.25;;;13.95;;
55063;SDS011;40963;52.168;21.296;2023-04-19T10:12:41;19.80;;;9.73;;
55063;SDS011;40963;52.168;21.296;2023-04-19T10:15:12;15.35;;;9.25;;
55063;SDS011;40963;52.168;21.296;2023-04-19T10:17:38;12.35;;;7.43;;
55063;SDS011;40963;52.168;21.296;2023-04-19T10:20:16;11.63;;;7.45;;
55063;SDS011;40963;52.168;21.296;2023-04-19T10:22:46;13.40;;;8.27;;
55063;SDS011;40963;52.168;21.296;2023-04-19T10:25:15;11.75;;;7.70;;
55063;SDS011;40963;52.168;21.296;2023-04-19T10:27:43;14.32;;;8.40;;
55063;SDS011;40963;52.168;21.296;2023-04-19T10:30:19;11.18;;;7.65;;
55063;SDS011;40963;52.168;21.296;2023-04-19T10:32:55;14.25;;;7.90;;
55063;SDS011;40963;52.168;21.296;2023-04-19T10:35:22;10.65;;;7.20;;
55063;SDS011;40963;52.168;21.296;2023-04-19T10:43:21;22.15;;;11.55;;
55063;SDS011;40963;52.168;21.296;2023-04-19T10:45:47;25.88;;;14.13;;
55063;SDS011;40963;52.168;21.296;2023-04-19T10:51:04;21.50;;;11.65;;
55063;SDS011;40963;52.168;21.296;2023-04-19T10:53:50;20.25;;;10.98;;
55063;SDS011;40963;52.168;21.296;2023-04-19T11:01:39;11.90;;;7.47;;
55063;SDS011;40963;52.168;21.296;2023-04-19T11:04:10;17.58;;;10.75;;
55063;SDS011;40963;52.168;21.296;2023-04-19T11:06:39;12.05;;;8.10;;
55063;SDS011;40963;52.168;21.296;2023-04-19T11:09:31;18.10;;;9.88;;
55063;SDS011;40963;52.168;21.296;2023-04-19T11:12:06;19.00;;;9.68;;
55063;SDS011;40963;52.168;21.296;2023-04-19T11:14:47;12.98;;;8.52;;
55063;SDS011;40963;52.168;21.296;2023-04-19T11:17:24;7.72;;;6.05;;
55063;SDS011;40963;52.168;21.296;2023-04-19T11:22:24;11.38;;;6.70;;
55063;SDS011;40963;52.168;21.296;2023-04-19T11:25:03;11.55;;;6.45;;
55063;SDS011;40963;52.168;21.296;2023-04-19T11:27:29;7.30;;;5.25;;
55063;SDS011;40963;52.168;21.296;2023-04-19T11:30:00;9.70;;;6.53;;
55063;SDS011;40963;52.168;21.296;2023-04-19T11:32:28;9.40;;;5.95;;
55063;SDS011;40963;52.168;21.296;2023-04-19T11:34:54;14.65;;;6.22;;
55063;SDS011;40963;52.168;21.296;2023-04-19T11:37:20;17.05;;;6.05;;
55063;SDS011;40963;52.168;21.296;2023-04-19T11:39:46;10.65;;;5.90;;
55063;SDS011;40963;52.168;21.296;2023-04-19T11:42:18;12.18;;;7.47;;
55063;SDS011;40963;52.168;21.296;2023-04-19T11:44:47;15.55;;;7.75;;
55063;SDS011;40963;52.168;21.296;2023-04-19T11:47:14;8.18;;;5.72;;
55063;SDS011;40963;52.168;21.296;2023-04-19T11:49:41;7.75;;;4.88;;
55063;SDS011;40963;52.168;21.296;2023-04-19T11:52:06;10.13;;;5.93;;
55063;SDS011;40963;52.168;21.296;2023-04-19T11:54:32;8.88;;;6.20;;
55063;SDS011;40963;52.168;21.296;2023-04-19T11:56:58;7.70;;;6.22;;
55063;SDS011;40963;52.168;21.296;2023-04-19T11:59:28;8.63;;;6.00;;
55063;SDS011;40963;52.168;21.296;2023-04-19T12:01:55;11.52;;;6.63;;
55063;SDS011;40963;52.168;21.296;2023-04-19T12:04:28;6.68;;;5.15;;
55063;SDS011;40963;52.168;21.296;2023-04-19T12:06:57;10.13;;;4.65;;
55063;SDS011;40963;52.168;21.296;2023-04-19T12:09:24;9.40;;;5.85;;
55063;SDS011;40963;52.168;21.296;2023-04-19T12:11:50;8.73;;;5.53;;
55063;SDS011;40963;52.168;21.296;2023-04-19T12:14:16;6.20;;;4.93;;
55063;SDS011;40963;52.168;21.296;2023-04-19T12:19:47;7.28;;;5.57;;
55063;SDS011;40963;52.168;21.296;2023-04-19T12:22:14;8.43;;;6.30;;
55063;SDS011;40963;52.168;21.296;2023-04-19T12:24:41;13.30;;;5.93;;
55063;SDS011;40963;52.168;21.296;2023-04-19T12:27:07;10.68;;;6.38;;
55063;SDS011;40963;52.168;21.296;2023-04-19T12:29:34;8.88;;;5.97;;
55063;SDS011;40963;52.168;21.296;2023-04-19T12:32:00;8.05;;;5.90;;
55063;SDS011;40963;52.168;21.296;2023-04-19T12:34:26;11.65;;;6.57;;
55063;SDS011;40963;52.168;21.296;2023-04-19T12:36:52;9.55;;;5.65;;
55063;SDS011;40963;52.168;21.296;2023-04-19T12:39:17;12.93;;;6.47;;
55063;SDS011;40963;52.168;21.296;2023-04-19T12:41:43;9.38;;;6.47;;
55063;SDS011;40963;52.168;21.296;2023-04-19T12:44:09;9.77;;;6.53;;
55063;SDS011;40963;52.168;21.296;2023-04-19T12:46:35;9.50;;;6.40;;
55063;SDS011;40963;52.168;21.296;2023-04-19T12:49:00;9.77;;;6.97;;
55063;SDS011;40963;52.168;21.296;2023-04-19T12:51:26;10.05;;;6.63;;
55063;SDS011;40963;52.168;21.296;2023-04-19T12:53:51;7.82;;;6.05;;
55063;SDS011;40963;52.168;21.296;2023-04-19T12:56:18;11.57;;;5.93;;
55063;SDS011;40963;52.168;21.296;2023-04-19T12:58:44;9.40;;;6.53;;
55063;SDS011;40963;52.168;21.296;2023-04-19T13:01:09;10.85;;;7.28;;
55063;SDS011;40963;52.168;21.296;2023-04-19T13:03:35;8.95;;;6.32;;
55063;SDS011;40963;52.168;21.296;2023-04-19T13:06:02;10.52;;;6.70;;
55063;SDS011;40963;52.168;21.296;2023-04-19T13:08:28;9.63;;;6.13;;
55063;SDS011;40963;52.168;21.296;2023-04-19T13:10:56;9.80;;;6.80;;
55063;SDS011;40963;52.168;21.296;2023-04-19T13:13:25;8.80;;;6.40;;
55063;SDS011;40963;52.168;21.296;2023-04-19T13:15:51;11.20;;;6.82;;
55063;SDS011;40963;52.168;21.296;2023-04-19T13:18:17;10.10;;;6.45;;
55063;SDS011;40963;52.168;21.296;2023-04-19T13:20:43;8.23;;;6.22;;
55063;SDS011;40963;52.168;21.296;2023-04-19T13:23:08;10.48;;;7.05;;
55063;SDS011;40963;52.168;21.296;2023-04-19T13:25:34;9.52;;;6.53;;
55063;SDS011;40963;52.168;21.296;2023-04-19T13:28:00;9.18;;;6.45;;
55063;SDS011;40963;52.168;21.296;2023-04-19T13:30:25;10.68;;;6.65;;
55063;SDS011;40963;52.168;21.296;2023-04-19T13:32:51;12.10;;;7.07;;
55063;SDS011;40963;52.168;21.296;2023-04-19T13:35:17;9.75;;;6.93;;
55063;SDS011;40963;52.168;21.296;2023-04-19T13:37:42;10.20;;;7.00;;
55063;SDS011;40963;52.168;21.296;2023-04-19T13:40:10;10.25;;;7.13;;
55063;SDS011;40963;52.168;21.296;2023-04-19T13:42:36;10.48;;;7.03;;
55063;SDS011;40963;52.168;21.296;2023-04-19T13:45:02;10.80;;;6.80;;
55063;SDS011;40963;52.168;21.296;2023-04-19T13:47:27;10.93;;;7.20;;
55063;SDS011;40963;52.168;21.296;2023-04-19T13:49:53;11.23;;;6.78;;
55063;SDS011;40963;52.168;21.296;2023-04-19T13:52:18;13.23;;;7.07;;
55063;SDS011;40963;52.168;21.296;2023-04-19T13:54:44;9.07;;;6.88;;
55063;SDS011;40963;52.168;21.296;2023-04-19T13:57:10;9.55;;;6.97;;
55063;SDS011;40963;52.168;21.296;2023-04-19T13:59:36;10.63;;;7.63;;
55063;SDS011;40963;52.168;21.296;2023-04-19T14:02:02;17.52;;;7.28;;
55063;SDS011;40963;52.168;21.296;2023-04-19T14:04:28;11.93;;;7.00;;
55063;SDS011;40963;52.168;21.296;2023-04-19T14:06:54;8.63;;;6.68;;
55063;SDS011;40963;52.168;21.296;2023-04-19T14:09:20;14.15;;;7.18;;
55063;SDS011;40963;52.168;21.296;2023-04-19T14:11:46;9.75;;;7.22;;
55063;SDS011;40963;52.168;21.296;2023-04-19T14:14:13;10.43;;;6.65;;
55063;SDS011;40963;52.168;21.296;2023-04-19T14:16:39;9.50;;;6.75;;
55063;SDS011;40963;52.168;21.296;2023-04-19T14:19:05;10.43;;;7.03;;
55063;SDS011;40963;52.168;21.296;2023-04-19T14:21:31;9.68;;;7.20;;
55063;SDS011;40963;52.168;21.296;2023-04-19T14:23:56;11.75;;;7.18;;
55063;SDS011;40963;52.168;21.296;2023-04-19T14:26:22;8.15;;;6.53;;
55063;SDS011;40963;52.168;21.296;2023-04-19T14:28:48;12.15;;;6.75;;
55063;SDS011;40963;52.168;21.296;2023-04-19T14:31:13;12.23;;;6.90;;
55063;SDS011;40963;52.168;21.296;2023-04-19T14:33:39;9.18;;;6.57;;
55063;SDS011;40963;52.168;21.296;2023-04-19T14:36:05;9.80;;;6.38;;
55063;SDS011;40963;52.168;21.296;2023-04-19T14:38:30;10.18;;;6.15;;
55063;SDS011;40963;52.168;21.296;2023-04-19T14:40:57;8.90;;;5.95;;